Time;durP1;ratioP1;P1;durP2;ratioP2;P2;SDS_P1;SDS_P2;PMS_P1;PMS_P2;Temp;Humidity;BMP_temperature;BMP_pressure;BME280_temperature;BME280_humidity;BME280_pressure;Samples;Min_cycle;Max_cycle;Signal;HPM_P1;HPM_P2
2022/04/09 00:01:57;;;;;;;4.75;3.70;;;5.50;1.00;;;;;;5113009;28;20218;-82
2022/04/09 00:04:24;;;;;;;4.28;3.88;;;5.50;1.00;;;;;;5114602;28;20202;-83
2022/04/09 00:06:51;;;;;;;4.03;3.63;;;5.40;1.00;;;;;;5113060;28;20250;-82
2022/04/09 00:09:18;;;;;;;4.07;3.67;;;5.70;1.00;;;;;;5111462;28;20202;-82
2022/04/09 00:11:45;;;;;;;7.43;4.00;;;5.50;1.00;;;;;;5108720;28;20597;-83
2022/04/09 00:14:12;;;;;;;3.95;3.65;;;5.40;1.00;;;;;;5109076;28;20272;-82
2022/04/09 00:16:41;;;;;;;4.22;3.83;;;5.40;1.00;;;;;;5108513;28;20202;-83
2022/04/09 00:19:10;;;;;;;6.70;3.72;;;5.50;1.00;;;;;;5109182;28;20205;-83
2022/04/09 00:21:37;;;;;;;5.65;4.53;;;5.60;1.00;;;;;;5112459;28;20244;-81
2022/04/09 00:24:04;;;;;;;7.38;3.75;;;5.50;1.00;;;;;;5116278;28;20223;-81
2022/04/09 00:26:31;;;;;;;6.57;3.50;;;5.40;1.00;;;;;;5117664;28;20201;-82
2022/04/09 00:28:57;;;;;;;6.65;4.45;;;5.30;1.00;;;;;;5115341;28;20201;-82
2022/04/09 00:31:24;;;;;;;6.32;4.45;;;5.30;1.00;;;;;;5107539;28;20757;-82
2022/04/09 00:33:52;;;;;;;4.20;3.90;;;5.30;1.00;;;;;;5107599;28;20213;-82
2022/04/09 00:36:18;;;;;;;4.38;3.97;;;5.20;1.00;;;;;;5107593;28;20223;-83
2022/04/09 00:38:45;;;;;;;6.35;4.03;;;5.30;1.00;;;;;;5105442;28;20201;-82
2022/04/09 00:41:11;;;;;;;4.18;3.72;;;5.20;1.00;;;;;;5105175;28;20218;-82
2022/04/09 00:43:42;;;;;;;4.90;3.55;;;5.20;1.00;;;;;;5109876;28;20208;-81
2022/04/09 00:46:10;;;;;;;3.90;3.55;;;5.20;1.00;;;;;;5105715;28;20680;-82
2022/04/09 00:48:37;;;;;;;4.18;3.22;;;5.20;1.00;;;;;;5103394;28;20229;-82
2022/04/09 00:51:06;;;;;;;6.57;3.80;;;5.10;1.00;;;;;;5102838;28;20252;-82
2022/04/09 00:53:36;;;;;;;7.38;4.30;;;5.10;1.00;;;;;;5105613;28;20205;-82
2022/04/09 00:56:15;;;;;;;5.53;3.50;;;5.10;1.00;;;;;;5103741;28;20193;-81
2022/04/09 00:58:46;;;;;;;4.88;3.50;;;5.10;1.00;;;;;;5105344;28;20231;-81
2022/04/09 01:01:13;;;;;;;4.30;3.53;;;5.10;1.00;;;;;;5105319;28;20276;-81
2022/04/09 01:03:40;;;;;;;3.95;3.53;;;5.10;1.00;;;;;;5104695;28;20238;-81
2022/04/09 01:06:09;;;;;;;3.53;3.22;;;5.10;1.00;;;;;;5105892;28;20205;-81
2022/04/09 01:08:35;;;;;;;4.05;3.40;;;5.00;1.00;;;;;;5106990;28;20198;-82
2022/04/09 01:11:02;;;;;;;5.70;4.30;;;5.00;1.00;;;;;;5105612;28;20249;-82
2022/04/09 01:13:30;;;;;;;3.20;2.92;;;5.00;1.00;;;;;;5106508;28;20255;-81
2022/04/09 01:15:57;;;;;;;3.50;3.20;;;5.00;1.00;;;;;;5105735;28;20232;-82
2022/04/09 01:18:24;;;;;;;6.38;3.85;;;4.90;1.00;;;;;;5106848;28;20209;-81
2022/04/09 01:20:50;;;;;;;4.55;3.13;;;4.90;1.00;;;;;;5106828;28;20222;-82
2022/04/09 01:23:18;;;;;;;5.65;4.22;;;4.90;1.00;;;;;;5107903;28;20190;-83
2022/04/09 01:25:45;;;;;;;4.25;3.65;;;4.90;1.00;;;;;;5107636;28;20210;-82
2022/04/09 01:28:12;;;;;;;3.55;3.28;;;4.90;1.00;;;;;;5107958;28;20202;-82
2022/04/09 01:30:38;;;;;;;3.75;3.45;;;4.80;1.00;;;;;;5107685;28;20247;-83
2022/04/09 01:33:05;;;;;;;4.15;3.30;;;4.80;1.00;;;;;;5107646;28;20234;-83
2022/04/09 01:35:32;;;;;;;3.17;2.65;;;4.80;1.00;;;;;;5108292;28;20205;-83
2022/04/09 01:37:58;;;;;;;6.30;3.47;;;4.80;1.00;;;;;;5108049;28;20209;-82
2022/04/09 01:40:26;;;;;;;9.35;3.45;;;5.00;1.00;;;;;;5107692;28;20616;-82
2022/04/09 01:42:53;;;;;;;5.95;3.67;;;4.80;1.00;;;;;;5107779;28;20220;-82
2022/04/09 01:45:19;;;;;;;4.10;3.70;;;4.80;1.00;;;;;;5108485;28;20622;-82
2022/04/09 01:47:46;;;;;;;3.85;3.25;;;4.70;1.00;;;;;;5108069;28;20202;-82
2022/04/09 01:50:13;;;;;;;7.65;2.88;;;4.70;1.00;;;;;;5116495;28;20205;-82
2022/04/09 01:52:40;;;;;;;5.78;3.20;;;4.70;1.00;;;;;;5119429;28;20225;-82
2022/04/09 01:55:10;;;;;;;6.82;3.38;;;4.70;1.00;;;;;;5118262;28;20202;-81
2022/04/09 01:57:38;;;;;;;5.13;2.80;;;4.60;1.00;;;;;;5115866;28;20182;-82
2022/04/09 02:00:07;;;;;;;3.15;2.67;;;4.70;1.00;;;;;;5115629;28;20228;-83
2022/04/09 02:02:34;;;;;;;3.00;2.58;;;4.40;1.00;;;;;;5115205;28;20224;-83
2022/04/09 02:05:00;;;;;;;6.47;3.10;;;4.60;1.00;;;;;;5114663;28;20205;-81
2022/04/09 02:07:27;;;;;;;7.97;3.72;;;4.60;1.00;;;;;;5113659;28;20204;-82
2022/04/09 02:09:54;;;;;;;7.65;3.70;;;4.60;1.00;;;;;;5114603;28;20206;-82
2022/04/09 02:12:21;;;;;;;2.83;2.50;;;4.80;1.00;;;;;;5112979;28;20225;-82
2022/04/09 02:14:50;;;;;;;6.35;3.03;;;4.60;1.00;;;;;;5111483;28;20668;-82
2022/04/09 02:17:16;;;;;;;5.50;3.40;;;4.60;1.00;;;;;;5109045;28;20217;-82
2022/04/09 02:19:43;;;;;;;6.30;3.75;;;4.60;1.00;;;;;;5106222;28;20197;-82
2022/04/09 02:22:09;;;;;;;9.05;3.25;;;4.60;1.00;;;;;;5103491;28;20217;-82
2022/04/09 02:24:36;;;;;;;10.63;3.42;;;4.70;1.00;;;;;;5103594;28;20236;-82
2022/04/09 02:27:03;;;;;;;4.22;3.00;;;4.60;1.00;;;;;;5104383;28;20260;-82
2022/04/09 02:29:29;;;;;;;3.55;2.55;;;4.60;1.00;;;;;;5106823;28;20206;-83
2022/04/09 02:31:58;;;;;;;4.82;2.92;;;4.60;1.00;;;;;;5107180;28;20228;-83
2022/04/09 02:34:25;;;;;;;5.07;3.03;;;4.60;6.60;;;;;;5102795;28;20663;-82
2022/04/09 02:36:52;;;;;;;6.68;3.70;;;4.50;12.20;;;;;;5103794;28;20201;-82
2022/04/09 02:39:21;;;;;;;3.30;3.03;;;4.50;12.40;;;;;;5102649;28;20198;-83
2022/04/09 02:41:48;;;;;;;5.35;2.85;;;4.50;24.70;;;;;;5102709;28;20270;-82
2022/04/09 02:44:15;;;;;;;3.85;2.70;;;4.50;24.20;;;;;;5103365;28;20668;-82
2022/04/09 02:46:42;;;;;;;6.93;3.55;;;4.50;35.90;;;;;;5106137;28;20206;-82
2022/04/09 02:49:09;;;;;;;4.28;2.70;;;4.60;81.00;;;;;;5107777;28;20340;-82
2022/04/09 02:51:36;;;;;;;5.28;3.25;;;4.40;44.20;;;;;;5105868;28;20270;-82
2022/04/09 02:54:03;;;;;;;4.22;3.72;;;4.60;96.90;;;;;;5105351;28;20263;-82
2022/04/09 02:56:29;;;;;;;11.30;3.00;;;4.40;70.90;;;;;;5105280;28;20213;-82
2022/04/09 02:58:56;;;;;;;5.13;3.30;;;4.40;86.80;;;;;;5105871;28;20552;-82
2022/04/09 03:01:24;;;;;;;2.88;2.67;;;4.40;85.60;;;;;;5104942;28;20226;-83
2022/04/09 03:03:51;;;;;;;4.65;3.15;;;4.40;96.00;;;;;;5104674;28;20197;-83
2022/04/09 03:06:19;;;;;;;6.18;3.05;;;4.40;98.30;;;;;;5104117;28;20205;-82
2022/04/09 03:08:46;;;;;;;5.20;3.30;;;4.40;99.90;;;;;;5105338;28;20205;-84
2022/04/09 03:11:12;;;;;;;3.95;2.80;;;4.30;99.90;;;;;;5105417;28;20333;-82
2022/04/09 03:13:39;;;;;;;7.15;3.22;;;4.30;99.90;;;;;;5104737;28;20209;-82
2022/04/09 03:16:06;;;;;;;3.38;3.08;;;4.30;99.90;;;;;;5104483;28;20202;-82
2022/04/09 03:18:32;;;;;;;4.15;3.75;;;4.30;99.90;;;;;;5103608;28;20205;-82
2022/04/09 03:20:59;;;;;;;2.90;2.70;;;4.30;99.90;;;;;;5103617;28;20226;-82
2022/04/09 03:23:27;;;;;;;7.55;3.38;;;4.10;99.90;;;;;;5103732;28;20198;-82
2022/04/09 03:25:54;;;;;;;4.47;3.10;;;4.20;99.90;;;;;;5102841;28;20201;-82
2022/04/09 03:28:24;;;;;;;6.22;3.22;;;4.20;99.90;;;;;;5103185;28;20232;-82
2022/04/09 03:30:50;;;;;;;10.00;3.75;;;4.20;99.90;;;;;;5103285;28;20229;-82
2022/04/09 03:33:17;;;;;;;7.05;3.10;;;4.20;99.90;;;;;;5103782;28;20221;-82
2022/04/09 03:35:44;;;;;;;3.13;2.92;;;4.20;99.90;;;;;;5103597;28;20243;-82
2022/04/09 03:38:11;;;;;;;7.45;3.08;;;4.10;99.90;;;;;;5103406;28;20209;-83
2022/04/09 03:40:39;;;;;;;5.03;3.10;;;4.10;99.90;;;;;;5113492;28;20216;-83
2022/04/09 03:43:06;;;;;;;4.45;3.08;;;4.10;99.90;;;;;;5115366;28;20224;-81
2022/04/09 03:45:33;;;;;;;3.67;3.35;;;4.00;99.90;;;;;;5110590;28;20210;-81
2022/04/09 03:48:00;;;;;;;3.35;3.05;;;4.00;99.90;;;;;;5104158;28;20197;-83
2022/04/09 03:50:27;;;;;;;3.00;2.75;;;4.10;99.90;;;;;;5103199;28;20201;-81
2022/04/09 03:52:54;;;;;;;8.73;3.40;;;4.00;99.90;;;;;;5103763;28;20222;-82
2022/04/09 03:55:20;;;;;;;3.38;3.08;;;4.00;99.90;;;;;;5104656;28;20204;-82
2022/04/09 03:57:48;;;;;;;6.95;3.75;;;4.00;99.90;;;;;;5104629;28;20567;-82
2022/04/09 04:00:15;;;;;;;11.75;3.83;;;3.80;99.90;;;;;;5107143;28;20186;-82
2022/04/09 04:02:45;;;;;;;4.95;3.80;;;3.80;99.90;;;;;;5116911;28;20231;-82
2022/04/09 04:05:11;;;;;;;4.35;3.22;;;3.80;99.90;;;;;;5116868;28;20217;-82
2022/04/09 04:07:43;;;;;;;3.17;2.88;;;3.80;99.90;;;;;;5113879;28;20202;-82
2022/04/09 04:10:10;;;;;;;5.03;3.58;;;3.70;99.90;;;;;;5104863;28;20190;-82
2022/04/09 04:12:37;;;;;;;6.13;3.78;;;3.70;99.90;;;;;;5104453;28;20247;-82
2022/04/09 04:15:06;;;;;;;4.43;3.80;;;3.70;99.90;;;;;;5107348;28;20235;-82
2022/04/09 04:17:39;;;;;;;6.60;3.63;;;3.60;99.90;;;;;;5111478;28;20235;-82
2022/04/09 04:20:07;;;;;;;6.82;3.85;;;3.70;99.90;;;;;;5110885;28;20158;-82
2022/04/09 04:22:34;;;;;;;4.82;3.00;;;3.60;99.90;;;;;;5111080;28;20223;-82
2022/04/09 04:25:00;;;;;;;4.55;3.30;;;3.60;99.90;;;;;;5109830;28;20197;-82
2022/04/09 04:27:28;;;;;;;8.35;5.05;;;3.60;99.90;;;;;;5111954;28;20205;-82
2022/04/09 04:29:59;;;;;;;7.30;3.80;;;3.60;99.90;;;;;;5112216;28;20537;-82
2022/04/09 04:32:27;;;;;;;9.30;4.30;;;3.60;99.90;;;;;;5106440;28;20221;-82
2022/04/09 04:34:54;;;;;;;5.32;4.05;;;3.60;99.90;;;;;;5105511;28;20205;-82
2022/04/09 04:37:20;;;;;;;7.78;3.75;;;3.60;99.90;;;;;;5107547;28;20209;-82
2022/04/09 04:39:47;;;;;;;4.18;3.13;;;3.60;99.90;;;;;;5117967;28;20192;-82
2022/04/09 04:42:14;;;;;;;12.98;4.40;;;3.40;99.90;;;;;;5118512;28;20255;-81
2022/04/09 04:44:40;;;;;;;6.70;2.88;;;3.90;99.90;;;;;;5118894;28;20201;-81
2022/04/09 04:47:07;;;;;;;6.50;4.18;;;3.70;99.90;;;;;;5117968;28;20192;-82
2022/04/09 04:49:35;;;;;;;10.93;3.97;;;3.70;99.90;;;;;;5117888;28;20189;-82
2022/04/09 04:52:03;;;;;;;4.80;3.20;;;3.60;99.90;;;;;;5114435;28;20225;-82
2022/04/09 04:54:30;;;;;;;6.75;3.88;;;3.60;99.90;;;;;;5105495;28;20284;-83
2022/04/09 04:56:56;;;;;;;6.70;4.72;;;3.70;99.90;;;;;;5102912;28;20254;-83
2022/04/09 04:59:23;;;;;;;12.27;7.57;;;3.70;99.90;;;;;;5101083;28;20684;-83
2022/04/09 05:01:50;;;;;;;3.90;3.50;;;3.70;99.90;;;;;;5101992;28;20223;-83
2022/04/09 05:04:17;;;;;;;6.63;4.63;;;3.70;99.90;;;;;;5101580;28;20255;-83
2022/04/09 05:06:45;;;;;;;5.95;4.07;;;3.60;99.90;;;;;;5105568;28;20273;-82
2022/04/09 05:09:13;;;;;;;10.68;4.60;;;3.60;99.90;;;;;;5105013;28;20209;-83
2022/04/09 05:11:40;;;;;;;5.88;4.75;;;3.60;99.90;;;;;;5105030;28;20226;-83
2022/04/09 05:14:07;;;;;;;4.82;3.38;;;3.60;99.90;;;;;;5107487;28;20641;-83
2022/04/09 05:16:33;;;;;;;5.13;4.63;;;3.60;99.90;;;;;;5116571;28;20209;-82
2022/04/09 05:19:00;;;;;;;11.10;3.75;;;3.60;99.90;;;;;;5117826;28;20211;-81
2022/04/09 05:21:27;;;;;;;4.95;3.40;;;3.80;99.90;;;;;;5115911;28;20275;-81
2022/04/09 05:23:55;;;;;;;5.40;4.07;;;3.70;99.90;;;;;;5114327;28;20232;-81
2022/04/09 05:26:22;;;;;;;7.63;3.42;;;3.60;99.90;;;;;;5116014;28;20212;-81
2022/04/09 05:28:52;;;;;;;5.20;4.15;;;3.70;99.90;;;;;;5113055;28;20231;-82
2022/04/09 05:31:20;;;;;;;6.57;4.15;;;3.70;99.90;;;;;;5117363;28;20716;-81
2022/04/09 05:33:46;;;;;;;4.43;3.55;;;3.70;99.90;;;;;;5120178;28;20202;-82
2022/04/09 05:36:13;;;;;;;7.00;4.00;;;3.70;99.90;;;;;;5111062;28;20811;-83
2022/04/09 05:38:40;;;;;;;6.57;3.08;;;3.80;99.90;;;;;;5106563;28;20198;-83
2022/04/09 05:41:08;;;;;;;4.80;3.63;;;3.80;99.90;;;;;;5107039;28;20221;-83
2022/04/09 05:43:34;;;;;;;8.65;4.53;;;3.80;99.90;;;;;;5106600;28;20228;-82
2022/04/09 05:46:01;;;;;;;4.57;3.92;;;3.90;99.90;;;;;;5107476;28;20202;-82
2022/04/09 05:48:28;;;;;;;5.90;4.35;;;3.90;99.90;;;;;;5107108;28;20208;-82
2022/04/09 05:50:54;;;;;;;6.20;3.40;;;3.90;99.90;;;;;;5111034;28;20237;-83
2022/04/09 05:53:21;;;;;;;3.00;2.78;;;4.00;99.90;;;;;;5114064;28;20221;-82
2022/04/09 05:55:47;;;;;;;3.67;3.35;;;4.00;99.90;;;;;;5113741;28;20205;-82
2022/04/09 05:58:15;;;;;;;5.38;3.50;;;4.20;99.90;;;;;;5113645;28;20297;-82
2022/04/09 06:00:42;;;;;;;6.03;3.10;;;4.30;99.90;;;;;;5110345;28;20316;-82
2022/04/09 06:03:10;;;;;;;8.18;3.42;;;4.40;99.90;;;;;;5107915;28;20198;-82
2022/04/09 06:05:37;;;;;;;5.35;3.80;;;4.50;99.90;;;;;;5109254;28;20643;-83
2022/04/09 06:08:04;;;;;;;3.40;3.10;;;4.50;99.90;;;;;;5112175;28;20362;-82
2022/04/09 06:10:32;;;;;;;6.07;3.60;;;4.50;66.50;;;;;;5107187;28;20243;-82
2022/04/09 06:12:59;;;;;;;5.28;4.00;;;4.70;99.90;;;;;;5111490;28;20228;-82
2022/04/09 06:15:27;;;;;;;7.35;3.28;;;4.70;93.00;;;;;;5114510;28;20204;-82
2022/04/09 06:17:53;;;;;;;4.20;3.90;;;4.70;63.10;;;;;;5114043;28;20198;-82
2022/04/09 06:20:20;;;;;;;9.32;4.13;;;5.10;28.90;;;;;;5104951;28;20227;-82
2022/04/09 06:22:46;;;;;;;7.68;3.85;;;4.80;2.20;;;;;;5104478;28;20201;-82
2022/04/09 06:25:13;;;;;;;5.55;3.25;;;4.80;1.00;;;;;;5102333;28;20229;-82
2022/04/09 06:27:41;;;;;;;6.47;2.83;;;4.90;1.00;;;;;;5103235;28;20279;-82
2022/04/09 06:30:09;;;;;;;8.25;4.00;;;4.80;1.00;;;;;;5105731;28;20205;-82
2022/04/09 06:32:38;;;;;;;5.38;3.88;;;4.80;1.00;;;;;;5106544;28;20218;-83
2022/04/09 06:35:06;;;;;;;6.65;4.13;;;4.80;1.00;;;;;;5104475;28;20585;-82
2022/04/09 06:37:33;;;;;;;11.82;3.20;;;4.90;1.00;;;;;;5109539;28;20229;-82
2022/04/09 06:40:00;;;;;;;4.55;3.33;;;5.00;1.00;;;;;;5109232;28;20198;-82
2022/04/09 06:42:27;;;;;;;8.15;3.80;;;5.00;1.00;;;;;;5103428;28;20594;-83
2022/04/09 06:44:54;;;;;;;5.63;3.95;;;5.10;1.00;;;;;;5099963;28;20205;-83
2022/04/09 06:47:21;;;;;;;5.30;3.70;;;5.10;1.00;;;;;;5101713;28;20206;-83
2022/04/09 06:49:49;;;;;;;7.80;3.20;;;5.10;1.00;;;;;;5102908;28;20205;-82
2022/04/09 06:52:16;;;;;;;7.03;3.25;;;5.10;1.00;;;;;;5104527;28;20247;-82
2022/04/09 06:54:43;;;;;;;4.18;3.75;;;5.10;1.00;;;;;;5107746;28;20235;-82
2022/04/09 06:57:09;;;;;;;16.45;4.13;;;5.20;1.00;;;;;;5108687;28;20201;-83
2022/04/09 06:59:36;;;;;;;3.25;3.03;;;5.40;1.00;;;;;;5109447;28;20224;-82
2022/04/09 07:02:06;;;;;;;9.27;3.72;;;5.40;1.00;;;;;;5107833;28;20283;-82
2022/04/09 07:04:33;;;;;;;4.28;3.72;;;5.50;1.00;;;;;;5106252;28;20220;-83
2022/04/09 07:07:01;;;;;;;6.75;3.35;;;5.40;1.00;;;;;;5108085;28;20207;-83
2022/04/09 07:09:28;;;;;;;5.57;3.90;;;5.50;99.90;;;;;;5108976;28;20224;-82
2022/04/09 07:11:55;;;;;;;9.52;4.95;;;5.50;1.00;;;;;;5108467;28;20221;-82
2022/04/09 07:14:22;;;;;;;7.03;3.97;;;5.80;99.90;;;;;;5107788;28;20268;-81
2022/04/09 07:16:49;;;;;;;9.05;4.18;;;5.60;99.90;;;;;;5107761;28;20208;-82
2022/04/09 07:19:15;;;;;;;8.13;3.65;;;5.70;99.90;;;;;;5106863;28;20436;-82
2022/04/09 07:21:42;;;;;;;10.52;3.92;;;6.00;99.90;;;;;;5106616;28;20714;-82
2022/04/09 07:24:11;;;;;;;7.07;3.13;;;6.00;18.50;;;;;;5107372;28;20244;-83
2022/04/09 07:26:38;;;;;;;9.73;3.47;;;6.10;1.00;;;;;;5104113;28;20252;-82
2022/04/09 07:29:04;;;;;;;5.72;3.90;;;6.10;1.00;;;;;;5103597;28;20264;-83
2022/04/09 07:31:31;;;;;;;13.68;3.55;;;6.20;99.90;;;;;;5104331;28;20229;-83
2022/04/09 07:33:58;;;;;;;5.40;2.95;;;6.30;1.00;;;;;;5104779;28;20218;-83
2022/04/09 07:36:24;;;;;;;19.30;4.97;;;6.40;99.90;;;;;;5104269;28;20221;-84
2022/04/09 07:38:51;;;;;;;6.68;2.95;;;6.30;99.90;;;;;;5104717;28;20229;-83
2022/04/09 07:41:19;;;;;;;6.20;3.80;;;6.40;1.00;;;;;;5104944;28;20480;-82
2022/04/09 07:43:45;;;;;;;8.00;3.17;;;6.20;99.90;;;;;;5104337;28;20437;-82
2022/04/09 07:46:12;;;;;;;5.18;3.75;;;6.20;99.90;;;;;;5102590;28;20251;-82
2022/04/09 07:48:39;;;;;;;6.78;3.22;;;6.60;1.00;;;;;;5103221;28;20271;-84
2022/04/09 07:51:05;;;;;;;6.32;3.33;;;6.60;99.90;;;;;;5102425;28;20252;-82
2022/04/09 07:53:32;;;;;;;9.07;3.80;;;6.60;99.90;;;;;;5102541;28;20222;-82
2022/04/09 07:55:59;;;;;;;4.38;2.90;;;6.50;1.00;;;;;;5103430;28;20228;-83
2022/04/09 07:58:27;;;;;;;11.48;4.07;;;6.60;1.00;;;;;;5103981;28;20242;-83
2022/04/09 08:00:54;;;;;;;6.53;3.80;;;6.80;1.00;;;;;;5104216;28;20228;-83
2022/04/09 08:03:20;;;;;;;6.38;3.58;;;6.80;1.00;;;;;;5104428;28;20210;-83
2022/04/09 08:05:47;;;;;;;5.72;3.45;;;6.80;99.90;;;;;;5102185;28;20226;-82
2022/04/09 08:08:14;;;;;;;5.75;3.28;;;6.80;99.90;;;;;;5104716;28;20214;-82
2022/04/09 08:10:40;;;;;;;7.78;3.85;;;6.80;99.90;;;;;;5108356;28;20227;-82
2022/04/09 08:13:07;;;;;;;4.72;3.15;;;7.00;1.00;;;;;;5108677;28;20215;-82
2022/04/09 08:15:35;;;;;;;11.57;3.88;;;6.90;99.90;;;;;;5108346;28;20217;-82
2022/04/09 08:18:04;;;;;;;10.50;3.25;;;6.90;99.90;;;;;;5109171;28;20207;-83
2022/04/09 08:20:31;;;;;;;9.02;3.25;;;6.90;25.20;;;;;;5109281;28;20226;-83
2022/04/09 08:22:59;;;;;;;3.35;3.15;;;7.00;1.00;;;;;;5108676;28;20211;-83
2022/04/09 08:25:26;;;;;;;4.13;3.65;;;6.90;99.90;;;;;;5108163;28;20202;-82
2022/04/09 08:27:53;;;;;;;7.68;3.70;;;6.90;99.90;;;;;;5106352;28;20200;-83
2022/04/09 08:30:22;;;;;;;6.75;2.75;;;6.60;1.00;;;;;;5109650;28;20206;-82
2022/04/09 08:32:50;;;;;;;8.75;3.55;;;6.80;10.30;;;;;;5108845;28;20773;-82
2022/04/09 08:35:17;;;;;;;4.68;3.55;;;6.90;1.00;;;;;;5106073;28;20236;-82
2022/04/09 08:37:44;;;;;;;10.63;3.20;;;7.10;1.00;;;;;;5110208;28;20191;-83
2022/04/09 08:40:14;;;;;;;9.93;3.20;;;7.50;1.00;;;;;;5112450;28;20212;-81
2022/04/09 08:42:41;;;;;;;3.85;2.75;;;7.40;99.90;;;;;;5112431;28;20193;-82
2022/04/09 08:45:09;;;;;;;7.20;3.42;;;7.70;99.90;;;;;;5113744;28;20195;-83
2022/04/09 08:47:36;;;;;;;10.43;4.60;;;7.60;51.20;;;;;;5117681;28;20212;-81
2022/04/09 08:50:06;;;;;;;4.45;2.60;;;7.70;99.90;;;;;;5117403;28;20197;-82
2022/04/09 08:52:33;;;;;;;7.82;3.28;;;7.60;99.90;;;;;;5117796;28;20224;-83
2022/04/09 08:55:00;;;;;;;8.23;3.13;;;7.30;1.00;;;;;;5117393;28;20221;-83
2022/04/09 08:57:28;;;;;;;5.85;2.50;;;7.40;99.90;;;;;;5117845;28;20183;-81
2022/04/09 08:59:56;;;;;;;4.60;2.60;;;7.50;1.00;;;;;;5115898;28;20207;-82
2022/04/09 09:02:23;;;;;;;10.05;4.35;;;7.40;1.00;;;;;;5113765;28;20247;-82
2022/04/09 09:04:50;;;;;;;6.82;3.67;;;7.40;26.60;;;;;;5112686;28;20205;-82
2022/04/09 09:07:21;;;;;;;3.22;2.45;;;7.50;14.90;;;;;;5108680;28;20259;-83
2022/04/09 09:09:47;;;;;;;5.68;3.30;;;7.70;1.90;;;;;;5107093;28;20188;-83
2022/04/09 09:12:28;;;;;;;5.25;2.75;;;7.80;1.00;;;;;;5107142;28;20251;-82
2022/04/09 09:14:55;;;;;;;5.95;3.10;;;7.80;1.00;;;;;;5104995;28;20210;-82
2022/04/09 09:17:28;;;;;;;7.85;2.67;;;7.80;1.00;;;;;;5105338;28;20212;-83
2022/04/09 09:19:54;;;;;;;6.83;3.00;;;8.00;1.00;;;;;;5105319;28;20290;-83
2022/04/09 09:22:22;;;;;;;10.52;2.85;;;8.00;1.00;;;;;;5105912;28;20474;-82
2022/04/09 09:25:03;;;;;;;2.17;2.08;;;8.00;1.00;;;;;;5108120;28;20665;-82
2022/04/09 09:27:30;;;;;;;5.47;2.57;;;8.10;1.00;;;;;;5105796;28;20193;-82
2022/04/09 09:29:57;;;;;;;5.82;2.40;;;8.10;1.00;;;;;;5105996;28;20428;-83
2022/04/09 09:32:26;;;;;;;7.73;3.00;;;8.20;1.00;;;;;;5105199;28;20642;-82
2022/04/09 09:34:54;;;;;;;5.32;3.45;;;8.40;1.00;;;;;;5110561;28;20517;-82
2022/04/09 09:37:24;;;;;;;5.67;3.07;;;8.50;1.00;;;;;;5112759;28;20728;-81
2022/04/09 09:39:52;;;;;;;6.50;2.90;;;8.80;1.00;;;;;;5107045;28;20519;-82
2022/04/09 09:42:19;;;;;;;3.17;2.37;;;8.80;1.00;;;;;;5106770;28;20226;-83
2022/04/09 09:44:46;;;;;;;4.67;2.27;;;9.00;1.00;;;;;;5105642;28;20447;-83
2022/04/09 09:47:14;;;;;;;5.03;3.03;;;9.00;1.00;;;;;;5105615;28;20418;-83
2022/04/09 09:49:53;;;;;;;4.17;2.53;;;8.80;1.00;;;;;;5104173;28;20478;-82
2022/04/09 09:52:26;;;;;;;3.77;2.67;;;8.70;1.00;;;;;;5103983;28;20480;-83
2022/04/09 09:54:57;;;;;;;6.63;2.53;;;8.50;1.00;;;;;;5103237;28;20445;-82
2022/04/09 09:57:26;;;;;;;7.00;3.00;;;8.50;1.00;;;;;;5107569;28;20453;-81
2022/04/09 09:59:54;;;;;;;3.57;2.63;;;8.40;1.00;;;;;;5112275;28;20424;-83
2022/04/09 10:02:22;;;;;;;4.57;2.60;;;8.50;1.00;;;;;;5105415;28;21033;-83
2022/04/09 10:04:50;;;;;;;3.30;2.50;;;8.60;1.00;;;;;;5105265;28;20479;-83
2022/04/09 10:07:17;;;;;;;4.77;2.50;;;8.80;1.00;;;;;;5106734;28;20941;-83
2022/04/09 10:09:45;;;;;;;7.53;3.13;;;9.00;1.00;;;;;;5115234;28;20418;-82
2022/04/09 10:12:13;;;;;;;4.40;2.97;;;8.80;1.00;;;;;;5117196;28;20430;-84
2022/04/09 10:14:41;;;;;;;3.33;2.50;;;9.20;1.00;;;;;;5116876;28;20458;-83
2022/04/09 10:17:09;;;;;;;11.97;2.87;;;9.20;1.00;;;;;;5106526;28;20421;-84
2022/04/09 10:19:42;;;;;;;4.87;3.80;;;9.30;1.00;;;;;;5108763;28;20437;-85
2022/04/09 10:22:11;;;;;;;3.80;2.00;;;9.20;1.00;;;;;;5117805;28;20438;-84
2022/04/09 10:24:39;;;;;;;6.10;1.90;;;9.20;1.00;;;;;;5109160;28;20428;-84
2022/04/09 10:27:08;;;;;;;5.83;2.53;;;9.30;1.00;;;;;;5108645;28;20448;-77
2022/04/09 10:29:48;;;;;;;2.63;2.43;;;9.60;1.00;;;;;;5100330;28;20925;-78
2022/04/09 10:32:41;;;;;;;2.43;2.00;;;9.60;99.90;;;;;;5101818;28;20525;-78
2022/04/09 10:35:23;;;;;;;6.47;3.27;;;9.50;99.90;;;;;;5101128;28;20472;-77
2022/04/09 10:38:16;;;;;;;9.87;3.00;;;9.60;1.00;;;;;;5100784;28;20437;-77
2022/04/09 10:41:31;;;;;;;2.70;2.27;;;9.70;1.00;;;;;;5100832;28;20442;-77
2022/04/09 10:44:00;;;;;;;2.00;1.80;;;9.60;99.90;;;;;;5100538;28;20479;-78
2022/04/09 10:46:37;;;;;;;3.57;2.43;;;9.50;1.00;;;;;;5101400;28;20419;-77
2022/04/09 10:49:28;;;;;;;3.57;2.77;;;9.50;99.90;;;;;;5100567;28;20431;-78
2022/04/09 10:52:06;;;;;;;2.90;2.20;;;9.30;99.90;;;;;;5096406;28;21025;-77
2022/04/09 10:54:33;;;;;;;3.53;2.40;;;9.20;99.90;;;;;;5096734;28;20483;-77
2022/04/09 10:57:11;;;;;;;2.70;1.90;;;9.40;99.90;;;;;;5096187;28;20440;-77
2022/04/09 10:59:39;;;;;;;4.33;1.93;;;9.50;99.90;;;;;;5096354;28;20454;-77
2022/04/09 11:02:06;;;;;;;3.43;2.20;;;9.70;99.90;;;;;;5096200;28;20460;-77
2022/04/09 11:04:38;;;;;;;5.10;2.30;;;9.60;99.90;;;;;;5095646;28;20475;-78
2022/04/09 11:07:06;;;;;;;5.13;2.00;;;9.60;99.90;;;;;;5095689;28;20862;-77
2022/04/09 11:09:53;;;;;;;4.57;2.07;;;9.50;99.90;;;;;;5098386;28;20444;-84
2022/04/09 11:12:24;;;;;;;3.20;2.13;;;9.50;99.90;;;;;;5103445;28;20470;-83
2022/04/09 11:14:54;;;;;;;3.37;3.00;;;9.30;99.90;;;;;;5102688;28;20468;-84
2022/04/09 11:17:28;;;;;;;3.37;2.10;;;9.10;99.90;;;;;;5103422;28;20443;-84
2022/04/09 11:19:56;;;;;;;3.63;2.10;;;9.30;99.90;;;;;;5102070;28;20434;-84
2022/04/09 11:22:31;;;;;;;2.60;2.00;;;9.40;99.90;;;;;;5101927;28;20434;-82
2022/04/09 11:24:57;;;;;;;3.23;2.93;;;9.50;99.90;;;;;;5100311;28;20435;-84
2022/04/09 11:27:25;;;;;;;2.07;1.70;;;9.70;99.90;;;;;;5099342;28;20418;-83
2022/04/09 11:29:55;;;;;;;4.73;2.70;;;9.70;99.90;;;;;;5100310;28;20443;-84
2022/04/09 11:32:23;;;;;;;3.73;2.00;;;9.60;99.90;;;;;;5102082;28;20990;-84
2022/04/09 11:34:51;;;;;;;2.50;2.13;;;9.70;99.90;;;;;;5114742;28;20480;-85
2022/04/09 11:37:18;;;;;;;2.40;1.33;;;10.00;99.90;;;;;;5116555;28;20436;-85
2022/04/09 11:39:47;;;;;;;3.23;1.80;;;10.20;99.90;;;;;;5115911;28;20440;-83
2022/04/09 11:42:14;;;;;;;2.77;1.57;;;10.40;99.90;;;;;;5113557;28;20460;-85
2022/04/09 11:44:41;;;;;;;2.40;1.77;;;10.50;99.90;;;;;;5111336;28;20420;-86
2022/04/09 11:47:11;;;;;;;1.87;1.70;;;10.50;99.90;;;;;;5110647;28;20422;-85
2022/04/09 11:49:38;;;;;;;3.60;1.80;;;10.40;99.90;;;;;;5106167;28;20418;-85
2022/04/09 11:52:05;;;;;;;3.07;1.90;;;10.10;99.90;;;;;;5106993;28;20475;-86
2022/04/09 11:54:32;;;;;;;2.47;1.87;;;9.80;1.00;;;;;;5114778;28;20460;-85
2022/04/09 11:57:00;;;;;;;3.90;1.97;;;9.70;99.90;;;;;;5117871;28;20446;-86
2022/04/09 11:59:26;;;;;;;4.20;1.80;;;9.70;99.90;;;;;;5117114;28;20447;-85
2022/04/09 12:01:53;;;;;;;7.00;1.90;;;9.70;99.90;;;;;;5114185;28;20468;-84
2022/04/09 12:04:22;;;;;;;4.30;2.10;;;9.80;99.90;;;;;;5114033;28;20555;-86
2022/04/09 12:06:49;;;;;;;2.90;2.40;;;9.70;99.90;;;;;;5109503;28;20406;-87
2022/04/09 12:09:16;;;;;;;4.13;2.03;;;9.90;99.90;;;;;;5111399;28;20395;-86
2022/04/09 12:11:43;;;;;;;3.03;2.13;;;9.90;99.90;;;;;;5112094;28;20446;-85
2022/04/09 12:14:12;;;;;;;2.87;2.50;;;9.70;99.90;;;;;;5117800;27;20434;-85
2022/04/09 12:16:39;;;;;;;2.17;1.80;;;10.00;99.90;;;;;;5117830;28;20434;-84
2022/04/09 12:19:07;;;;;;;2.10;1.87;;;10.10;99.90;;;;;;5117717;28;20424;-86
2022/04/09 12:21:37;;;;;;;3.83;1.50;;;10.40;99.90;;;;;;5117902;28;20494;-85
2022/04/09 12:24:06;;;;;;;4.17;2.43;;;10.60;99.90;;;;;;5113892;28;20436;-85
2022/04/09 12:26:34;;;;;;;3.40;2.23;;;10.60;99.90;;;;;;5115342;28;20383;-87
2022/04/09 12:29:13;;;;;;;6.30;2.13;;;10.20;99.90;;;;;;5116199;28;20439;-86
2022/04/09 12:31:40;;;;;;;3.23;1.73;;;10.60;99.90;;;;;;5115496;28;20455;-86
2022/04/09 12:34:08;;;;;;;6.73;1.80;;;10.50;99.90;;;;;;5114457;28;20456;-86
2022/04/09 12:36:38;;;;;;;2.80;1.90;;;10.20;99.90;;;;;;5114689;28;20415;-86
2022/04/09 12:39:24;;;;;;;7.50;2.40;;;10.70;99.90;;;;;;5115913;28;20488;-84
2022/04/09 12:41:52;;;;;;;4.37;2.47;;;10.70;1.00;;;;;;5115875;28;20468;-87
2022/04/09 12:44:26;;;;;;;2.43;1.97;;;10.40;99.90;;;;;;5115529;28;20488;-84
2022/04/09 12:46:54;;;;;;;2.93;2.50;;;9.80;99.90;;;;;;5113638;28;20431;-85
2022/04/09 12:49:25;;;;;;;2.47;1.40;;;13.70;99.90;;;;;;5111677;28;20429;-86
2022/04/09 12:51:54;;;;;;;3.10;1.90;;;10.40;99.90;;;;;;5106598;28;20463;-86
2022/04/09 12:54:21;;;;;;;3.63;1.53;;;10.40;99.90;;;;;;5107349;28;20447;-85
2022/04/09 12:56:48;;;;;;;1.37;1.30;;;;;;;;;;5110693;28;20432;-85
2022/04/09 12:59:17;;;;;;;3.60;1.20;;;;;;;;;;5115900;28;20410;-86
2022/04/09 13:01:48;;;;;;;1.43;1.30;;;9.20;1.00;;;;;;5112731;28;20982;-88
2022/04/09 13:04:15;;;;;;;2.00;1.60;;;;;;;;;;5110705;28;20462;-85
2022/04/09 13:06:42;;;;;;;1.23;1.13;;;8.60;1.00;;;;;;5109593;28;20469;-85